createdAt,value
2018-09-05T00:04:07.005Z,100342.42
2018-09-05T00:09:11.272Z,100344.84
2018-09-05T00:14:14.874Z,100347.23
2018-09-05T00:19:18.357Z,100338.09
2018-09-05T00:24:21.841Z,100331.73
2018-09-05T00:29:25.770Z,100337.66
2018-09-05T00:34:29.245Z,100339.03
2018-09-05T00:39:32.713Z,100338.19
2018-09-05T00:44:36.169Z,100345.56
2018-09-05T00:49:39.591Z,100337.64
2018-09-05T00:54:43.092Z,100333.56
2018-09-05T00:59:46.711Z,100336.34
2018-09-05T01:04:50.582Z,100338.59
2018-09-05T01:09:54.287Z,100333.91
2018-09-05T01:14:57.774Z,100329.19
2018-09-05T01:20:01.319Z,100331.19
2018-09-05T01:25:05.045Z,100332.58
2018-09-05T01:30:08.967Z,100330.83
2018-09-05T01:35:12.580Z,100330.50
2018-09-05T01:40:16.065Z,100330.31
2018-09-05T01:45:19.524Z,100332.13
2018-09-05T01:50:27.137Z,100341.69
2018-09-05T01:55:30.615Z,100346.64
2018-09-05T02:00:35.280Z,100335.61
2018-09-05T02:05:38.977Z,100344.38
2018-09-05T02:10:42.546Z,100334.46
2018-09-05T02:15:46.081Z,100347.22
2018-09-05T02:20:49.553Z,100350.42
2018-09-05T02:25:53.152Z,100349.67
2018-09-05T02:30:56.633Z,100350.09
2018-09-05T02:36:00.378Z,100342.78
2018-09-05T02:41:03.981Z,100343.20
2018-09-05T02:46:07.325Z,100338.67
2018-09-05T02:51:10.756Z,100341.90
2018-09-05T02:56:14.517Z,100339.36
2018-09-05T03:01:18.669Z,100342.14
2018-09-05T03:06:22.948Z,100339.97
2018-09-05T03:11:26.430Z,100333.62
2018-09-05T03:16:29.925Z,100339.88
2018-09-05T03:21:33.364Z,100336.91
2018-09-05T03:26:36.947Z,100338.72
2018-09-05T03:31:40.665Z,100345.91
2018-09-05T03:36:44.349Z,100351.32
2018-09-05T03:41:47.965Z,100352.34
2018-09-05T03:46:51.456Z,100357.34
2018-09-05T03:51:54.966Z,100366.05
2018-09-05T03:56:58.547Z,100362.84
2018-09-05T04:02:02.057Z,100362.61
2018-09-05T04:07:06.110Z,100372.52
2018-09-05T04:12:09.714Z,100369.19
2018-09-05T04:17:13.648Z,100375.78
2018-09-05T04:22:17.155Z,100377.95
2018-09-05T04:27:20.697Z,100382.03
2018-09-05T04:32:24.214Z,100389.50
2018-09-05T04:37:27.929Z,100392.28
2018-09-05T04:42:31.753Z,100391.77
2018-09-05T04:47:36.665Z,100393.25
2018-09-05T04:52:40.208Z,100396.45
2018-09-05T04:57:43.637Z,100399.84
2018-09-05T05:02:47.097Z,100404.38
2018-09-05T05:07:50.560Z,100407.58
2018-09-05T05:12:54.021Z,100412.53
2018-09-05T05:17:57.513Z,100420.63
2018-09-05T05:23:00.957Z,100421.00
2018-09-05T05:28:04.698Z,100420.63
2018-09-05T05:33:08.150Z,100418.22
2018-09-05T05:38:11.616Z,100424.11
2018-09-05T05:43:15.165Z,100427.77
2018-09-05T05:48:19.072Z,100436.30
2018-09-05T05:53:22.556Z,100435.88
2018-09-05T05:58:26.194Z,100440.05
2018-09-05T06:03:29.830Z,100445.76
2018-09-05T06:08:33.651Z,100448.72
2018-09-05T06:13:37.690Z,100446.48
2018-09-05T06:18:41.742Z,100450.48
2018-09-05T06:23:45.328Z,100455.95
2018-09-05T06:28:49.156Z,100452.14
2018-09-05T06:33:53.079Z,100454.92
2018-09-05T06:38:56.837Z,100458.77
2018-09-05T06:44:00.603Z,100460.63
2018-09-05T06:49:04.630Z,100453.61
2018-09-05T06:54:08.249Z,100457.27
2018-09-05T06:59:12.517Z,100452.50
2018-09-05T07:04:16.207Z,100459.57
2018-09-05T07:09:19.710Z,100452.92
2018-09-05T07:14:23.195Z,100457.03
2018-09-05T07:19:26.665Z,100449.72
2018-09-05T07:24:30.105Z,100463.39
2018-09-05T07:29:33.997Z,100458.63
2018-09-05T07:34:37.462Z,100469.66
2018-09-05T07:39:41.640Z,100466.01
2018-09-05T07:44:45.107Z,100469.58
2018-09-05T07:49:48.556Z,100475.42
2018-09-05T07:54:52.036Z,100474.07
2018-09-05T07:59:55.487Z,100479.81
2018-09-05T08:04:58.981Z,100471.84
2018-09-05T08:10:02.815Z,100479.67
2018-09-05T08:15:06.862Z,100479.44
2018-09-05T08:20:10.367Z,100472.08
2018-09-05T08:25:13.972Z,100476.89
2018-09-05T08:30:17.504Z,100479.07
2018-09-05T08:35:21.269Z,100477.77
2018-09-05T08:40:24.602Z,100479.20
2018-09-05T08:45:28.573Z,100474.15
2018-09-05T08:50:31.694Z,100476.59
2018-09-05T08:55:35.166Z,100474.72
2018-09-05T09:00:38.641Z,100479.05
2018-09-05T09:05:42.217Z,100478.86
2018-09-05T09:10:45.749Z,100477.81
2018-09-05T09:15:49.508Z,100474.00
2018-09-05T09:20:52.985Z,100476.54
2018-09-05T09:25:56.488Z,100468.70
2018-09-05T09:31:00.005Z,100469.89
2018-09-05T09:36:03.654Z,100470.25
2018-09-05T09:41:07.257Z,100467.83
2018-09-05T09:46:10.877Z,100466.71
2018-09-05T09:51:14.333Z,100465.65
2018-09-05T09:56:17.821Z,100457.48
2018-09-05T10:01:26.710Z,100452.46
2018-09-05T10:06:35.402Z,100447.84
2018-09-05T10:11:44.225Z,100450.70
2018-09-05T10:16:53.139Z,100441.55
2018-09-05T10:21:56.959Z,100433.37
2018-09-05T10:27:00.474Z,100435.20
2018-09-05T10:32:04.101Z,100432.55
2018-09-05T10:37:07.640Z,100426.27
2018-09-05T10:42:11.532Z,100425.50
2018-09-05T10:47:15.045Z,100419.26
2018-09-05T10:52:18.760Z,100409.77
2018-09-05T10:57:22.491Z,100405.06
2018-09-05T11:02:26.084Z,100403.66
2018-09-05T11:07:29.823Z,100396.03
2018-09-05T11:12:33.336Z,100396.20
2018-09-05T11:17:37.160Z,100391.85
2018-09-05T11:22:41.077Z,100387.86
2018-09-05T11:27:44.639Z,100384.97
2018-09-05T11:32:48.262Z,100379.05
2018-09-05T11:37:51.816Z,100376.26
2018-09-05T11:42:55.654Z,100382.54
2018-09-05T11:47:59.185Z,100379.05
2018-09-05T11:53:02.677Z,100378.00
2018-09-05T11:58:06.402Z,100377.58
2018-09-05T12:03:10.222Z,100372.79
2018-09-05T12:08:13.843Z,100362.26
2018-09-05T12:13:17.761Z,100366.94
2018-09-05T12:18:21.378Z,100361.30
2018-09-05T12:23:25.006Z,100353.55
2018-09-05T12:28:28.672Z,100356.83
2018-09-05T12:33:32.362Z,100352.66
2018-09-05T12:38:36.167Z,100350.40
2018-09-05T12:43:39.599Z,100343.08
2018-09-05T12:48:43.158Z,100333.94
2018-09-05T12:53:46.828Z,100336.30
2018-09-05T12:58:50.372Z,100333.33
2018-09-05T13:03:53.978Z,100325.76
2018-09-05T13:08:57.518Z,100325.58
2018-09-05T13:14:01.161Z,100322.55
2018-09-05T13:19:04.673Z,100323.07
2018-09-05T13:24:08.112Z,100316.64
2018-09-05T13:29:11.830Z,100316.64
2018-09-05T13:34:15.314Z,100315.95
2018-09-05T13:39:18.781Z,100319.59
2018-09-05T13:44:22.239Z,100305.84
2018-09-05T13:49:25.953Z,100295.66
2018-09-05T13:54:29.506Z,100305.23
2018-09-05T13:59:33.633Z,100302.02
2018-09-05T14:04:37.549Z,100297.38
2018-09-05T14:09:41.364Z,100298.77
2018-09-05T14:14:44.878Z,100293.38
2018-09-05T14:19:48.372Z,100295.55
2018-09-05T14:24:51.897Z,100284.14
2018-09-05T14:29:55.394Z,100280.58
2018-09-05T14:34:58.945Z,100277.96
2018-09-05T14:40:02.477Z,100277.35
2018-09-05T14:45:06.175Z,100274.74
2018-09-05T14:50:09.784Z,100274.89
2018-09-05T14:55:13.297Z,100275.67
2018-09-05T15:00:17.934Z,100271.05
2018-09-05T15:05:21.461Z,100267.48
2018-09-05T15:10:25.005Z,100265.48
2018-09-05T15:15:28.458Z,100261.13
2018-09-05T15:20:32.103Z,100263.83
2018-09-05T15:25:36.242Z,100260.09
2018-09-05T15:30:39.761Z,100257.04
2018-09-05T15:35:43.493Z,100252.25
2018-09-05T15:40:47.114Z,100244.81
2018-09-05T15:45:50.602Z,100244.20
2018-09-05T15:50:54.349Z,100244.98
2018-09-05T15:55:58.058Z,100239.77
2018-09-05T16:01:01.770Z,100241.77
2018-09-05T16:06:05.715Z,100240.29
2018-09-05T16:11:09.780Z,100238.89
2018-09-05T16:16:13.432Z,100238.28
2018-09-05T16:21:17.036Z,100230.67
2018-09-05T16:26:20.604Z,100237.81
2018-09-05T16:31:27.082Z,100231.20
2018-09-05T16:36:30.786Z,100228.41
2018-09-05T16:41:34.384Z,100225.27
2018-09-05T16:46:38.116Z,100229.45
2018-09-05T16:51:42.137Z,100233.98
2018-09-05T16:56:46.391Z,100244.34
2018-09-05T17:01:49.956Z,100240.34
2018-09-05T17:06:53.854Z,100236.59
2018-09-05T17:11:57.666Z,100233.03
2018-09-05T17:17:02.091Z,100238.59
2018-09-05T17:22:05.616Z,100237.50
2018-09-05T17:27:09.198Z,100239.82
2018-09-05T17:32:12.942Z,100236.25
2018-09-05T17:37:16.414Z,100239.82
2018-09-05T17:42:20.071Z,100235.64
2018-09-05T17:47:23.815Z,100231.02
2018-09-05T17:52:27.294Z,100231.80
2018-09-05T17:57:30.919Z,100230.85
2018-09-05T18:02:34.649Z,100226.84
2018-09-05T18:07:38.260Z,100233.81
2018-09-05T18:12:41.737Z,100233.20
2018-09-05T18:17:45.322Z,100236.33
2018-09-05T18:22:49.272Z,100243.13
2018-09-05T18:27:53.330Z,100244.52
2018-09-05T18:32:56.984Z,100251.49
2018-09-05T18:38:00.865Z,100250.87
2018-09-05T18:43:04.589Z,100247.75
2018-09-05T18:48:08.331Z,100249.14
2018-09-05T18:53:13.364Z,100241.56
2018-09-05T18:58:17.129Z,100243.08
2018-09-05T19:03:20.921Z,100250.04
2018-09-05T19:08:24.857Z,100245.25
2018-09-05T19:13:28.390Z,100242.90
2018-09-05T19:18:31.960Z,100240.55
2018-09-05T19:23:36.426Z,100239.70
2018-09-05T19:28:39.874Z,100236.31
2018-09-05T19:33:43.386Z,100231.66
2018-09-05T19:38:47.380Z,100235.23
2018-09-05T19:43:51.075Z,100233.67
2018-09-05T19:48:54.746Z,100240.55
2018-09-05T19:53:58.837Z,100235.79
2018-09-05T19:59:02.664Z,100243.80
2018-09-05T20:04:06.373Z,100238.41
2018-09-05T20:09:10.111Z,100239.80
2018-09-05T20:14:13.790Z,100243.02
2018-09-05T20:19:17.439Z,100247.80
2018-09-05T20:24:20.895Z,100241.45
2018-09-05T20:29:24.625Z,100236.05
2018-09-05T20:34:28.205Z,100239.45
2018-09-05T20:39:31.944Z,100235.88
2018-09-05T20:44:35.726Z,100232.16
2018-09-05T20:49:39.233Z,100231.64
2018-09-05T20:54:42.854Z,100240.00
2018-09-05T20:59:46.591Z,100230.18
2018-09-05T21:04:50.050Z,100229.95
2018-09-05T21:09:53.545Z,100232.20
2018-09-05T21:14:57.025Z,100226.05
2018-09-05T21:20:00.542Z,100219.20
2018-09-05T21:25:04.330Z,100221.09
2018-09-05T21:30:07.882Z,100214.55
2018-09-05T21:35:11.613Z,100212.23
2018-09-05T21:40:15.313Z,100211.28
2018-09-05T21:45:18.765Z,100202.83
2018-09-05T21:50:22.339Z,100198.94
2018-09-05T21:55:26.167Z,100199.55
2018-09-05T22:00:29.783Z,100204.94
2018-09-05T22:05:33.230Z,100197.28
2018-09-05T22:10:36.758Z,100194.95
2018-09-05T22:15:44.279Z,100200.53
2018-09-05T22:20:47.927Z,100199.22
2018-09-05T22:25:51.497Z,100203.82
2018-09-05T22:30:54.909Z,100202.43
2018-09-05T22:35:58.355Z,100202.54
2018-09-05T22:41:01.936Z,100208.64
2018-09-05T22:46:16.774Z,100197.84
2018-09-05T22:53:39.759Z,100209.08
2018-09-05T22:59:31.041Z,100206.05
2018-09-05T23:04:49.382Z,100197.70
2018-09-05T23:10:04.247Z,100191.50
2018-09-05T23:15:18.866Z,100182.47
2018-09-05T23:20:31.956Z,100184.64
2018-09-05T23:25:35.424Z,100177.77
2018-09-05T23:30:38.925Z,100180.05
2018-09-05T23:35:42.548Z,100174.91
2018-09-05T23:40:46.101Z,100172.13
2018-09-05T23:45:49.693Z,100166.97
2018-09-05T23:50:53.903Z,100168.03
2018-09-05T23:55:57.592Z,100165.94
